Time;durP1;ratioP1;P1;durP2;ratioP2;P2;SDS_P1;SDS_P2;PMS_P1;PMS_P2;Temp;Humidity;BMP_temperature;BMP_pressure;BME280_temperature;BME280_humidity;BME280_pressure;Samples;Min_cycle;Max_cycle;Signal;HPM_P1;HPM_P2
2024/01/29 00:00:09;;;;;;;9.10;3.38;;;;;;;;;;4966002;28;20381;-80
2024/01/29 00:02:36;;;;;;;6.93;2.72;;;;;;;;;;4969445;28;20061;-76
2024/01/29 00:05:02;;;;;;;7.80;2.40;;;;;;;;;;4984409;28;20057;-80
2024/01/29 00:07:28;;;;;;;7.35;2.80;;;;;;;;;;4967808;28;20051;-82
2024/01/29 00:09:54;;;;;;;7.57;2.70;;;;;;;;;;4968095;28;20077;-81
2024/01/29 00:12:20;;;;;;;7.47;2.80;;;;;;;;;;4985785;28;20047;-79
2024/01/29 00:14:46;;;;;;;6.95;2.70;;;;;;;;;;4950132;28;20082;-81
2024/01/29 00:17:12;;;;;;;6.20;2.80;;;;;;;;;;4984759;28;20055;-81
2024/01/29 00:19:38;;;;;;;7.22;2.55;;;;;;;;;;4965633;28;20055;-81
2024/01/29 00:22:04;;;;;;;7.90;2.25;;;;;;;;;;4983916;28;20106;-82
2024/01/29 00:24:30;;;;;;;5.25;2.38;;;;;;;;;;4985993;28;20129;-80
2024/01/29 00:26:57;;;;;;;6.88;2.40;;;;;;;;;;4952570;28;20592;-81
2024/01/29 00:29:23;;;;;;;7.60;2.33;;;;;;;;;;4983204;28;20046;-80
2024/01/29 00:31:49;;;;;;;5.55;2.47;;;;;;;;;;4985609;28;20398;-81
2024/01/29 00:34:15;;;;;;;7.78;2.22;;;;;;;;;;4967268;28;20053;-82
2024/01/29 00:36:41;;;;;;;7.65;2.42;;;;;;;;;;4967343;28;20050;-81
2024/01/29 00:39:09;;;;;;;9.95;2.60;;;;;;;;;;4983424;28;20415;-81
2024/01/29 00:41:36;;;;;;;6.10;2.13;;;;;;;;;;4984997;28;20507;-82
2024/01/29 00:44:02;;;;;;;7.43;2.35;;;;;;;;;;4981343;28;20057;-80
2024/01/29 00:46:28;;;;;;;6.18;2.22;;;;;;;;;;4967618;28;20054;-81
2024/01/29 00:48:54;;;;;;;7.25;2.50;;;;;;;;;;4986143;28;20050;-80
2024/01/29 00:51:20;;;;;;;6.20;2.33;;;;;;;;;;4987022;28;20043;-81
2024/01/29 00:53:47;;;;;;;9.50;2.88;;;;;;;;;;4968935;28;20058;-81
2024/01/29 00:56:13;;;;;;;6.25;2.60;;;;;;;;;;4988248;28;20074;-79
2024/01/29 00:58:44;;;;;;;5.30;2.47;;;;;;;;;;4988823;28;20051;-81
2024/01/29 01:01:11;;;;;;;8.15;2.63;;;;;;;;;;4987850;28;20051;-81
2024/01/29 01:03:37;;;;;;;8.52;2.85;;;;;;;;;;4989352;28;20062;-81
2024/01/29 01:06:03;;;;;;;6.78;2.20;;;;;;;;;;4988700;28;20125;-82
2024/01/29 01:08:29;;;;;;;6.25;2.55;;;;;;;;;;4987692;28;20046;-79
2024/01/29 01:10:55;;;;;;;7.97;2.25;;;;;;;;;;4971679;28;20039;-80
2024/01/29 01:13:21;;;;;;;7.03;2.20;;;;;;;;;;4971322;28;20051;-82
2024/01/29 01:15:50;;;;;;;7.05;2.33;;;;;;;;;;4988631;28;20051;-80
2024/01/29 01:18:16;;;;;;;5.70;2.10;;;;;;;;;;4955223;28;20079;-81
2024/01/29 01:20:42;;;;;;;5.85;2.70;;;;;;;;;;4988046;28;20438;-80
2024/01/29 01:23:09;;;;;;;5.93;2.50;;;;;;;;;;4987861;28;20043;-80
2024/01/29 01:25:35;;;;;;;7.55;2.47;;;;;;;;;;4973657;28;20055;-79
2024/01/29 01:28:01;;;;;;;7.28;2.50;;;;;;;;;;4991197;28;20101;-81
2024/01/29 01:30:27;;;;;;;8.05;2.78;;;;;;;;;;4974018;28;20051;-81
2024/01/29 01:32:53;;;;;;;7.05;2.50;;;;;;;;;;4974397;28;20053;-81
2024/01/29 01:35:19;;;;;;;6.53;2.33;;;;;;;;;;4990993;28;20047;-81
2024/01/29 01:37:45;;;;;;;9.57;2.40;;;;;;;;;;4972738;28;20094;-80
2024/01/29 01:40:12;;;;;;;7.25;2.83;;;;;;;;;;4973690;28;20046;-82
2024/01/29 01:42:42;;;;;;;6.75;2.95;;;;;;;;;;4991208;28;20042;-82
2024/01/29 01:45:08;;;;;;;10.90;2.70;;;;;;;;;;4972625;28;20098;-81
2024/01/29 01:47:35;;;;;;;6.93;2.67;;;;;;;;;;4974003;28;20055;-81
2024/01/29 01:50:01;;;;;;;6.00;2.40;;;;;;;;;;4988506;28;20043;-80
2024/01/29 01:52:27;;;;;;;6.85;2.85;;;;;;;;;;4972255;28;20107;-81
2024/01/29 01:54:53;;;;;;;6.13;2.22;;;;;;;;;;4985391;28;20047;-80
2024/01/29 01:57:20;;;;;;;6.10;2.47;;;;;;;;;;4972266;28;20051;-81
2024/01/29 01:59:46;;;;;;;7.82;2.50;;;;;;;;;;4983884;28;20051;-75
2024/01/29 02:02:12;;;;;;;8.20;2.73;;;;;;;;;;4959591;28;20050;-75
2024/01/29 02:04:39;;;;;;;6.70;2.70;;;;;;;;;;4976279;28;20514;-75
2024/01/29 02:07:05;;;;;;;7.65;2.65;;;;;;;;;;4959283;28;20058;-76
2024/01/29 02:09:32;;;;;;;6.82;2.72;;;;;;;;;;4976649;28;20373;-76
2024/01/29 02:11:58;;;;;;;7.63;3.00;;;;;;;;;;4927278;28;20050;-76
2024/01/29 02:14:24;;;;;;;6.93;2.67;;;;;;;;;;4959487;28;20396;-76
2024/01/29 02:16:50;;;;;;;7.80;3.00;;;;;;;;;;4959924;28;20050;-75
2024/01/29 02:19:16;;;;;;;6.63;2.50;;;;;;;;;;4958816;28;20192;-76
2024/01/29 02:21:43;;;;;;;8.90;2.70;;;;;;;;;;4959228;28;20435;-76
2024/01/29 02:24:09;;;;;;;8.40;3.27;;;;;;;;;;4958815;28;20125;-75
2024/01/29 02:26:35;;;;;;;7.95;2.70;;;;;;;;;;4958805;28;20290;-75
2024/01/29 02:29:01;;;;;;;6.45;2.95;;;;;;;;;;4959134;28;20047;-75
2024/01/29 02:31:27;;;;;;;6.72;2.80;;;;;;;;;;4958812;28;20074;-76
2024/01/29 02:33:54;;;;;;;6.90;2.85;;;;;;;;;;4976197;28;20050;-74
2024/01/29 02:36:20;;;;;;;5.97;2.30;;;;;;;;;;4958233;28;20491;-75
2024/01/29 02:38:46;;;;;;;6.80;2.53;;;;;;;;;;4958773;28;20502;-74
2024/01/29 02:41:12;;;;;;;6.75;2.92;;;;;;;;;;4958880;28;20130;-75
2024/01/29 02:43:38;;;;;;;6.20;2.47;;;;;;;;;;4942614;28;20050;-75
2024/01/29 02:46:04;;;;;;;6.22;2.50;;;;;;;;;;4958727;28;20098;-76
2024/01/29 02:48:30;;;;;;;6.50;3.15;;;;;;;;;;4975675;28;20116;-75
2024/01/29 02:50:57;;;;;;;7.15;2.92;;;;;;;;;;4959532;28;20407;-76
2024/01/29 02:53:23;;;;;;;7.07;2.90;;;;;;;;;;4975591;28;20047;-75
2024/01/29 02:55:49;;;;;;;5.70;2.55;;;;;;;;;;4958475;28;20086;-75
2024/01/29 02:58:15;;;;;;;11.23;3.45;;;;;;;;;;4959223;28;20387;-76
2024/01/29 03:00:41;;;;;;;6.30;3.08;;;;;;;;;;4959009;28;20043;-76
2024/01/29 03:03:07;;;;;;;6.93;2.70;;;;;;;;;;4926485;28;20087;-75
2024/01/29 03:05:33;;;;;;;6.78;2.72;;;;;;;;;;4927026;28;20186;-75
2024/01/29 03:07:59;;;;;;;9.63;3.00;;;;;;;;;;4975413;28;20051;-75
2024/01/29 03:10:26;;;;;;;6.85;2.50;;;;;;;;;;4957978;28;20050;-75
2024/01/29 03:12:54;;;;;;;7.10;2.80;;;;;;;;;;4975778;28;20490;-76
2024/01/29 03:15:20;;;;;;;7.05;3.00;;;;;;;;;;4958035;28;20090;-76
2024/01/29 03:17:46;;;;;;;5.53;2.60;;;;;;;;;;4958114;28;20052;-75
2024/01/29 03:20:12;;;;;;;6.88;2.80;;;;;;;;;;4941633;28;20192;-75
2024/01/29 03:22:39;;;;;;;7.30;2.85;;;;;;;;;;4957977;28;20050;-76
2024/01/29 03:25:05;;;;;;;6.40;2.88;;;;;;;;;;4957920;28;20137;-76
2024/01/29 03:27:31;;;;;;;8.25;3.05;;;;;;;;;;4974340;28;20054;-76
2024/01/29 03:29:57;;;;;;;8.93;3.03;;;;;;;;;;4957744;28;20051;-76
2024/01/29 03:32:23;;;;;;;6.85;2.95;;;;;;;;;;4925768;28;20394;-75
2024/01/29 03:34:49;;;;;;;6.38;3.05;;;;;;;;;;4942698;28;20051;-74
2024/01/29 03:37:15;;;;;;;7.25;2.88;;;;;;;;;;4958136;28;20046;-76
2024/01/29 03:39:41;;;;;;;7.07;2.85;;;;;;;;;;4958257;28;20057;-76
2024/01/29 03:42:07;;;;;;;9.05;2.95;;;;;;;;;;4957433;28;20054;-74
2024/01/29 03:44:33;;;;;;;8.50;3.33;;;;;;;;;;4957866;28;20126;-75
2024/01/29 03:46:59;;;;;;;6.75;3.08;;;;;;;;;;4926013;28;20042;-76
2024/01/29 03:49:25;;;;;;;6.30;2.90;;;;;;;;;;4974666;28;20060;-76
2024/01/29 03:51:52;;;;;;;7.30;3.40;;;;;;;;;;4974603;28;20046;-75
2024/01/29 03:54:18;;;;;;;7.97;3.42;;;;;;;;;;4974259;28;20492;-75
2024/01/29 03:56:44;;;;;;;7.55;3.10;;;;;;;;;;4941953;28;20086;-76
2024/01/29 03:59:11;;;;;;;9.63;3.95;;;;;;;;;;4926279;28;20057;-76
2024/01/29 04:01:37;;;;;;;7.78;3.05;;;;;;;;;;4957705;28;20439;-75
2024/01/29 04:04:04;;;;;;;6.90;3.30;;;;;;;;;;4957788;28;20396;-75
2024/01/29 04:06:30;;;;;;;7.60;3.30;;;;;;;;;;4925567;28;20487;-75
2024/01/29 04:08:56;;;;;;;7.27;3.00;;;;;;;;;;4958182;28;20611;-75
2024/01/29 04:11:23;;;;;;;7.75;3.50;;;;;;;;;;4957225;28;20043;-75
2024/01/29 04:13:50;;;;;;;6.40;3.08;;;;;;;;;;4957203;28;20050;-75
2024/01/29 04:16:16;;;;;;;7.18;3.28;;;;;;;;;;4957456;28;20062;-75
2024/01/29 04:18:42;;;;;;;8.45;3.00;;;;;;;;;;4957267;28;20516;-75
2024/01/29 04:21:08;;;;;;;8.75;3.63;;;;;;;;;;4957763;28;20055;-75
2024/01/29 04:23:35;;;;;;;8.57;3.13;;;;;;;;;;4928361;28;20110;-76
2024/01/29 04:26:01;;;;;;;7.07;3.25;;;;;;;;;;4961342;28;20499;-75
2024/01/29 04:28:27;;;;;;;6.60;2.92;;;;;;;;;;4961052;28;20490;-75
2024/01/29 04:30:53;;;;;;;8.25;3.28;;;;;;;;;;4961108;28;20134;-74
2024/01/29 04:33:19;;;;;;;11.13;3.45;;;;;;;;;;4960920;28;20525;-74
2024/01/29 04:35:45;;;;;;;7.10;3.22;;;;;;;;;;4960781;28;20050;-75
2024/01/29 04:38:11;;;;;;;7.10;3.33;;;;;;;;;;4960858;28;20047;-75
2024/01/29 04:40:40;;;;;;;8.10;3.25;;;;;;;;;;4978061;28;20491;-76
2024/01/29 04:43:06;;;;;;;7.68;3.50;;;;;;;;;;4946061;28;20063;-75
2024/01/29 04:45:33;;;;;;;9.98;3.78;;;;;;;;;;4960677;28;20101;-75
2024/01/29 04:47:59;;;;;;;8.18;3.90;;;;;;;;;;4961053;28;20047;-75
2024/01/29 04:50:25;;;;;;;10.25;3.53;;;;;;;;;;4945597;28;20051;-76
2024/01/29 04:52:51;;;;;;;9.40;4.20;;;;;;;;;;4961153;28;20043;-75
2024/01/29 04:55:17;;;;;;;7.13;3.40;;;;;;;;;;4944576;28;20420;-76
2024/01/29 04:57:44;;;;;;;6.82;3.30;;;;;;;;;;4960640;28;20051;-75
2024/01/29 05:00:10;;;;;;;8.90;3.60;;;;;;;;;;4960564;28;20151;-75
2024/01/29 05:02:36;;;;;;;8.93;3.85;;;;;;;;;;4945461;28;20383;-75
2024/01/29 05:05:03;;;;;;;10.77;3.72;;;;;;;;;;4977783;28;20047;-75
2024/01/29 05:07:29;;;;;;;8.10;3.63;;;;;;;;;;4960670;28;20149;-74
2024/01/29 05:09:55;;;;;;;10.07;3.80;;;;;;;;;;4960273;28;20050;-75
2024/01/29 05:12:21;;;;;;;7.80;3.65;;;;;;;;;;4960072;28;20406;-75
2024/01/29 05:14:47;;;;;;;8.88;3.72;;;;;;;;;;4977468;28;20047;-75
2024/01/29 05:17:13;;;;;;;7.60;3.33;;;;;;;;;;4959965;28;20046;-75
2024/01/29 05:19:45;;;;;;;7.85;3.42;;;;;;;;;;4960975;28;20058;-76
2024/01/29 05:22:12;;;;;;;6.88;3.50;;;;;;;;;;4931248;28;20062;-75
2024/01/29 05:24:38;;;;;;;8.73;4.13;;;;;;;;;;4960519;28;20061;-76
2024/01/29 05:27:05;;;;;;;7.80;3.63;;;;;;;;;;4961258;28;20083;-75
2024/01/29 05:29:31;;;;;;;8.60;3.47;;;;;;;;;;4976999;28;20134;-75
2024/01/29 05:31:57;;;;;;;7.85;3.28;;;;;;;;;;4928004;28;20050;-75
2024/01/29 05:34:23;;;;;;;10.00;4.40;;;;;;;;;;4959144;28;20082;-75
2024/01/29 05:36:49;;;;;;;8.20;3.35;;;;;;;;;;4961055;28;20054;-74
2024/01/29 05:39:15;;;;;;;9.10;3.92;;;;;;;;;;4960112;28;20043;-76
2024/01/29 05:41:41;;;;;;;10.73;4.40;;;;;;;;;;4976457;28;20051;-76
2024/01/29 05:44:09;;;;;;;9.93;4.10;;;;;;;;;;4927788;28;20051;-75
2024/01/29 05:46:35;;;;;;;8.95;4.07;;;;;;;;;;4959578;28;20046;-75
2024/01/29 05:49:01;;;;;;;11.10;4.10;;;;;;;;;;4960182;28;20122;-75
2024/01/29 05:51:28;;;;;;;7.80;4.20;;;;;;;;;;4959231;28;20082;-76
2024/01/29 05:53:54;;;;;;;9.32;4.20;;;;;;;;;;4959335;28;20415;-75
2024/01/29 05:56:20;;;;;;;8.57;3.67;;;;;;;;;;4959617;28;20137;-75
2024/01/29 05:58:46;;;;;;;9.52;4.20;;;;;;;;;;4976494;28;20531;-76
2024/01/29 06:01:12;;;;;;;9.02;3.78;;;;;;;;;;4960183;28;20138;-75
2024/01/29 06:03:38;;;;;;;9.48;3.67;;;;;;;;;;4959372;28;20051;-75
2024/01/29 06:06:05;;;;;;;8.48;3.92;;;;;;;;;;4976486;28;20098;-74
2024/01/29 06:08:31;;;;;;;9.80;3.78;;;;;;;;;;4959228;28;20093;-77
2024/01/29 06:10:57;;;;;;;8.25;3.53;;;;;;;;;;4959724;28;20479;-75
2024/01/29 06:13:24;;;;;;;9.80;3.65;;;;;;;;;;4976190;28;20391;-75
2024/01/29 06:15:50;;;;;;;10.80;3.97;;;;;;;;;;4959136;28;20109;-76
2024/01/29 06:18:16;;;;;;;8.05;3.78;;;;;;;;;;4976047;28;20081;-76
2024/01/29 06:20:43;;;;;;;8.95;3.83;;;;;;;;;;4959649;28;20058;-75
2024/01/29 06:23:10;;;;;;;8.68;3.83;;;;;;;;;;4959110;28;20094;-74
2024/01/29 06:25:36;;;;;;;9.60;4.13;;;;;;;;;;4975986;28;20082;-76
2024/01/29 06:28:03;;;;;;;8.50;3.80;;;;;;;;;;4958895;28;20050;-75
2024/01/29 06:30:29;;;;;;;7.90;3.38;;;;;;;;;;4959540;28;20134;-75
2024/01/29 06:32:57;;;;;;;10.15;3.97;;;;;;;;;;4959498;28;20050;-76
2024/01/29 06:35:23;;;;;;;11.77;3.85;;;;;;;;;;4959411;28;20465;-76
2024/01/29 06:37:49;;;;;;;8.38;4.00;;;;;;;;;;4959370;28;20072;-74
2024/01/29 06:40:16;;;;;;;8.52;4.25;;;;;;;;;;4959192;28;20118;-74
2024/01/29 06:42:42;;;;;;;8.60;4.13;;;;;;;;;;4958746;28;20069;-76
2024/01/29 06:45:08;;;;;;;9.18;4.03;;;;;;;;;;4974915;28;20134;-73
2024/01/29 06:47:35;;;;;;;8.38;3.97;;;;;;;;;;4958079;28;20051;-74
2024/01/29 06:50:01;;;;;;;10.48;4.28;;;;;;;;;;4975694;28;20130;-75
2024/01/29 06:52:27;;;;;;;10.20;4.20;;;;;;;;;;4926375;28;20051;-74
2024/01/29 06:54:54;;;;;;;9.90;4.63;;;;;;;;;;4958502;28;20444;-75
2024/01/29 06:57:20;;;;;;;10.45;4.75;;;;;;;;;;4958294;28;20108;-75
2024/01/29 06:59:46;;;;;;;10.98;4.68;;;;;;;;;;4957971;28;20242;-76
2024/01/29 07:02:12;;;;;;;9.90;4.57;;;;;;;;;;4958225;28;20065;-75
2024/01/29 07:04:38;;;;;;;10.02;4.32;;;;;;;;;;4975675;28;20055;-74
2024/01/29 07:07:05;;;;;;;9.02;4.03;;;;;;;;;;4958134;28;20043;-76
2024/01/29 07:09:34;;;;;;;12.50;4.68;;;;;;;;;;4958075;28;20050;-74
2024/01/29 07:12:00;;;;;;;9.10;3.95;;;;;;;;;;4975433;28;20043;-75
2024/01/29 07:14:26;;;;;;;9.00;4.32;;;;;;;;;;4958187;28;20055;-75
2024/01/29 07:16:52;;;;;;;9.02;3.83;;;;;;;;;;4958885;28;20051;-75
2024/01/29 07:19:25;;;;;;;9.57;4.10;;;;;;;;;;4943719;28;20054;-75
2024/01/29 07:21:51;;;;;;;11.00;4.15;;;;;;;;;;4944929;28;20059;-74
2024/01/29 07:24:17;;;;;;;10.05;4.13;;;;;;;;;;4958920;28;20090;-74
2024/01/29 07:26:44;;;;;;;12.95;4.18;;;;;;;;;;4975756;28;20094;-75
2024/01/29 07:29:10;;;;;;;9.88;4.15;;;;;;;;;;4958475;28;20125;-75
2024/01/29 07:31:36;;;;;;;9.63;4.60;;;;;;;;;;4974936;28;20054;-75
2024/01/29 07:34:02;;;;;;;10.38;4.70;;;;;;;;;;4957475;28;20378;-75
2024/01/29 07:36:28;;;;;;;10.65;4.40;;;;;;;;;;4957753;28;20090;-74
2024/01/29 07:38:54;;;;;;;11.05;4.50;;;;;;;;;;4974624;28;20165;-74
2024/01/29 07:41:20;;;;;;;12.50;4.60;;;;;;;;;;4974702;28;20086;-74
2024/01/29 07:43:46;;;;;;;10.07;4.68;;;;;;;;;;4925947;28;20059;-74
2024/01/29 07:46:13;;;;;;;10.23;4.65;;;;;;;;;;4957779;28;20058;-74
2024/01/29 07:48:40;;;;;;;9.80;4.70;;;;;;;;;;4957299;28;20499;-74
2024/01/29 07:51:06;;;;;;;;;;;;;;;;;;4957946;28;20047;-75
2024/01/29 07:53:32;;;;;;;10.88;4.95;;;;;;;;;;4957316;28;19930;-75
2024/01/29 07:55:58;;;;;;;10.43;4.53;;;;;;;;;;4957160;28;20402;-75
2024/01/29 07:58:24;;;;;;;9.73;4.90;;;;;;;;;;4941620;28;20046;-74
2024/01/29 08:00:50;;;;;;;11.27;4.75;;;;;;;;;;4974497;28;20047;-74
2024/01/29 08:03:16;;;;;;;9.55;4.50;;;;;;;;;;4957256;28;20051;-76
2024/01/29 08:05:43;;;;;;;12.60;4.80;;;;;;;;;;4957718;28;20092;-73
2024/01/29 08:08:09;;;;;;;8.45;4.40;;;;;;;;;;4957859;28;20055;-74
2024/01/29 08:10:35;;;;;;;8.80;4.50;;;;;;;;;;4974471;28;20077;-74
2024/01/29 08:13:01;;;;;;;10.70;4.85;;;;;;;;;;4956983;28;20055;-74
2024/01/29 08:15:29;;;;;;;8.23;4.53;;;;;;;;;;4974427;28;20138;-74
2024/01/29 08:17:55;;;;;;;9.77;4.68;;;;;;;;;;4941592;28;20061;-72
2024/01/29 08:20:22;;;;;;;11.70;5.10;;;;;;;;;;4956960;28;20050;-74
2024/01/29 08:22:48;;;;;;;10.75;4.75;;;;;;;;;;4974247;28;20409;-73
2024/01/29 08:25:14;;;;;;;9.93;4.82;;;;;;;;;;4957559;28;20086;-75
2024/01/29 08:27:41;;;;;;;10.95;5.13;;;;;;;;;;4957204;28;20156;-74
2024/01/29 08:30:07;;;;;;;11.57;4.70;;;;;;;;;;4956872;28;20091;-76
2024/01/29 08:32:33;;;;;;;12.73;5.27;;;;;;;;;;4956742;28;20492;-74
2024/01/29 08:34:59;;;;;;;8.68;4.32;;;;;;;;;;4941053;28;20047;-74
2024/01/29 08:37:27;;;;;;;11.63;5.05;;;;;;;;;;4956891;28;20043;-73
2024/01/29 08:39:53;;;;;;;9.90;5.00;;;;;;;;;;4957272;28;20046;-74
2024/01/29 08:42:19;;;;;;;12.82;5.32;;;;;;;;;;4957496;28;20399;-74
2024/01/29 08:44:46;;;;;;;10.88;4.72;;;;;;;;;;4956771;28;20054;-74
2024/01/29 08:47:12;;;;;;;9.82;4.47;;;;;;;;;;4957625;28;20392;-74
2024/01/29 08:49:38;;;;;;;9.25;4.05;;;;;;;;;;4956803;28;20046;-75
2024/01/29 08:52:04;;;;;;;15.73;4.88;;;;;;;;;;4940785;28;20054;-74
2024/01/29 08:54:30;;;;;;;11.97;5.23;;;;;;;;;;4973592;28;20522;-75
2024/01/29 08:56:56;;;;;;;10.65;5.00;;;;;;;;;;4956916;28;20058;-75
2024/01/29 08:59:22;;;;;;;11.35;5.03;;;;;;;;;;4956797;28;20483;-75
2024/01/29 09:01:49;;;;;;;9.82;4.53;;;;;;;;;;4973967;28;20101;-75
2024/01/29 09:04:15;;;;;;;11.35;4.78;;;;;;;;;;4957032;28;20050;-74
2024/01/29 09:06:41;;;;;;;13.02;5.30;;;;;;;;;;4925170;28;20046;-74
2024/01/29 09:09:07;;;;;;;11.77;4.90;;;;;;;;;;4959085;28;20054;-74
2024/01/29 09:11:33;;;;;;;10.65;4.95;;;;;;;;;;4960449;28;20483;-77
2024/01/29 09:13:59;;;;;;;11.07;4.97;;;;;;;;;;4960297;28;20129;-74
2024/01/29 09:16:25;;;;;;;10.32;4.90;;;;;;;;;;4977345;28;20050;-75
2024/01/29 09:18:51;;;;;;;10.70;4.90;;;;;;;;;;4959783;28;20054;-74
2024/01/29 09:21:17;;;;;;;10.23;4.88;;;;;;;;;;4943937;28;20074;-75
2024/01/29 09:23:43;;;;;;;10.02;5.22;;;;;;;;;;4960125;28;20053;-75
2024/01/29 09:26:10;;;;;;;11.35;5.70;;;;;;;;;;4944027;28;20050;-75
2024/01/29 09:28:37;;;;;;;11.25;5.40;;;;;;;;;;4960118;28;20055;-74
2024/01/29 09:31:04;;;;;;;11.52;5.20;;;;;;;;;;4960050;28;20117;-75
2024/01/29 09:33:30;;;;;;;10.00;5.68;;;;;;;;;;4944346;28;20090;-75
2024/01/29 09:35:56;;;;;;;9.90;5.15;;;;;;;;;;4959670;28;20051;-72
2024/01/29 09:38:22;;;;;;;14.18;5.80;;;;;;;;;;4943648;28;20138;-74
2024/01/29 09:40:48;;;;;;;12.35;6.22;;;;;;;;;;4959793;28;20097;-74
2024/01/29 09:43:17;;;;;;;11.70;5.93;;;;;;;;;;4976764;28;20126;-74
2024/01/29 09:45:43;;;;;;;11.68;5.80;;;;;;;;;;4959791;28;20054;-74
2024/01/29 09:48:11;;;;;;;10.82;5.68;;;;;;;;;;4959436;28;20117;-75
2024/01/29 09:50:39;;;;;;;11.15;5.60;;;;;;;;;;4959574;28;20135;-75
2024/01/29 09:53:07;;;;;;;13.82;5.85;;;;;;;;;;4959796;28;20043;-76
2024/01/29 09:55:33;;;;;;;13.07;6.63;;;;;;;;;;4959678;28;20043;-74
2024/01/29 09:57:59;;;;;;;10.38;5.78;;;;;;;;;;4959502;28;20471;-74
2024/01/29 10:00:25;;;;;;;13.35;6.28;;;;;;;;;;4959748;28;20053;-75
2024/01/29 10:02:54;;;;;;;11.57;6.00;;;;;;;;;;4959869;28;20055;-75
2024/01/29 10:05:20;;;;;;;14.50;6.43;;;;;;;;;;4959365;28;20483;-75
2024/01/29 10:07:46;;;;;;;12.68;6.40;;;;;;;;;;4960100;28;20142;-74
2024/01/29 10:10:12;;;;;;;14.27;6.10;;;;;;;;;;4958965;28;20078;-74
2024/01/29 10:12:38;;;;;;;12.80;6.55;;;;;;;;;;4927431;28;20380;-75
2024/01/29 10:15:05;;;;;;;12.23;6.40;;;;;;;;;;4943313;28;20046;-74
2024/01/29 10:17:32;;;;;;;12.55;6.32;;;;;;;;;;4959276;28;20059;-74
2024/01/29 10:19:58;;;;;;;11.85;6.10;;;;;;;;;;4975153;28;20059;-75
2024/01/29 10:22:25;;;;;;;9.95;6.07;;;;;;;;;;4976592;28;20047;-74
2024/01/29 10:24:51;;;;;;;;;;;;;;;;;;4943676;28;20058;-75
2024/01/29 10:27:17;;;;;;;12.70;6.80;;;;;;;;;;4959074;28;20006;-74
2024/01/29 10:29:47;;;;;;;10.88;6.32;;;;;;;;;;4943859;28;20121;-75
2024/01/29 10:32:14;;;;;;;13.65;6.28;;;;;;;;;;4958681;28;20038;-75
2024/01/29 10:34:40;;;;;;;11.80;6.53;;;;;;;;;;4958609;28;20097;-74
2024/01/29 10:37:07;;;;;;;14.82;6.43;;;;;;;;;;4959191;28;20055;-74
2024/01/29 10:39:34;;;;;;;12.32;6.55;;;;;;;;;;4959026;28;20395;-74
2024/01/29 10:42:02;;;;;;;12.55;6.75;;;;;;;;;;4942719;28;20047;-75
2024/01/29 10:44:28;;;;;;;;;;;;;;;;;;4943084;28;20058;-75
2024/01/29 10:46:54;;;;;;;13.57;6.60;;;;;;;;;;4958597;28;19922;-75
2024/01/29 10:49:21;;;;;;;13.75;6.63;;;;;;;;;;4958138;28;20137;-75
2024/01/29 10:51:48;;;;;;;12.88;6.95;;;;;;;;;;4958319;28;20055;-74
2024/01/29 10:54:14;;;;;;;13.98;7.47;;;;;;;;;;4942485;28;20049;-75
2024/01/29 10:56:41;;;;;;;14.35;7.20;;;;;;;;;;4958813;28;20054;-74
2024/01/29 10:59:08;;;;;;;13.43;7.07;;;;;;;;;;4926225;28;20487;-74
2024/01/29 11:01:34;;;;;;;16.38;7.72;;;;;;;;;;4958892;28;20379;-74
2024/01/29 11:04:01;;;;;;;14.30;7.53;;;;;;;;;;4958244;28;20463;-73
2024/01/29 11:06:33;;;;;;;13.68;7.60;;;;;;;;;;4942279;28;20061;-74
2024/01/29 11:09:01;;;;;;;13.60;8.07;;;;;;;;;;4942732;28;20054;-74
2024/01/29 11:11:30;;;;;;;15.95;7.53;;;;;;;;;;4958109;28;20065;-74
2024/01/29 11:13:56;;;;;;;14.35;7.75;;;;;;;;;;4942002;28;20086;-75
2024/01/29 11:16:22;;;;;;;14.73;7.43;;;;;;;;;;4957886;28;20054;-74
2024/01/29 11:18:49;;;;;;;14.43;7.40;;;;;;;;;;4958519;28;20055;-75
2024/01/29 11:21:15;;;;;;;12.93;7.25;;;;;;;;;;4959276;28;20291;-74
2024/01/29 11:23:43;;;;;;;14.43;7.32;;;;;;;;;;4959000;28;20054;-77
2024/01/29 11:26:17;;;;;;;15.02;7.75;;;;;;;;;;4960603;28;20058;-75
2024/01/29 11:28:44;;;;;;;13.38;7.38;;;;;;;;;;4980739;28;20047;-76
2024/01/29 11:31:12;;;;;;;13.23;7.75;;;;;;;;;;4948410;28;20050;-76
2024/01/29 11:33:38;;;;;;;13.40;6.82;;;;;;;;;;4946166;28;20058;-73
2024/01/29 11:36:12;;;;;;;15.67;7.90;;;;;;;;;;4961551;28;20517;-75
2024/01/29 11:38:38;;;;;;;15.88;7.93;;;;;;;;;;4943585;28;20053;-75
2024/01/29 11:41:04;;;;;;;13.20;7.00;;;;;;;;;;4959518;28;20042;-75
2024/01/29 11:43:32;;;;;;;13.82;7.90;;;;;;;;;;4975587;28;20051;-76
2024/01/29 11:45:58;;;;;;;15.93;8.27;;;;;;;;;;4958274;28;20435;-76
2024/01/29 11:48:24;;;;;;;14.93;8.05;;;;;;;;;;4941604;28;20116;-76
2024/01/29 11:50:52;;;;;;;16.60;8.70;;;;;;;;;;4974714;28;20065;-74
2024/01/29 11:53:19;;;;;;;15.40;7.70;;;;;;;;;;4956953;28;20137;-76
2024/01/29 11:55:46;;;;;;;16.00;7.85;;;;;;;;;;4941560;28;20055;-74
2024/01/29 11:58:18;;;;;;;16.48;8.38;;;;;;;;;;4957758;28;20109;-75
2024/01/29 12:00:45;;;;;;;17.02;8.20;;;;;;;;;;4957076;28;20510;-75
2024/01/29 12:03:12;;;;;;;18.00;8.85;;;;;;;;;;4957088;28;20487;-75
2024/01/29 12:05:40;;;;;;;16.30;8.57;;;;;;;;;;4957307;28;20043;-74
2024/01/29 12:08:06;;;;;;;;;;;;;;;;;;4957515;28;20141;-75
2024/01/29 12:10:32;;;;;;;17.00;8.10;;;;;;;;;;4941239;28;20356;-74
2024/01/29 12:12:58;;;;;;;16.17;8.40;;;;;;;;;;4957100;28;20368;-74
2024/01/29 12:15:24;;;;;;;18.20;8.73;;;;;;;;;;4956891;28;20140;-74
2024/01/29 12:17:50;;;;;;;16.02;8.43;;;;;;;;;;4957675;28;20047;-74
2024/01/29 12:20:16;;;;;;;15.27;8.45;;;;;;;;;;4941000;28;20061;-74
2024/01/29 12:22:43;;;;;;;15.25;7.80;;;;;;;;;;4952204;28;20468;-75
2024/01/29 12:25:12;;;;;;;17.30;8.40;;;;;;;;;;4974296;28;20082;-75
2024/01/29 12:27:39;;;;;;;16.08;8.55;;;;;;;;;;4957250;28;20047;-75
2024/01/29 12:30:08;;;;;;;15.77;8.57;;;;;;;;;;4956972;28;20090;-75
2024/01/29 12:32:35;;;;;;;17.67;9.10;;;;;;;;;;4956596;28;20046;-75
2024/01/29 12:35:01;;;;;;;13.65;8.27;;;;;;;;;;4957234;28;20117;-75
2024/01/29 12:37:27;;;;;;;18.13;8.80;;;;;;;;;;4956626;28;20054;-75
2024/01/29 12:39:54;;;;;;;16.85;8.98;;;;;;;;;;4957024;28;20042;-74
2024/01/29 12:42:24;;;;;;;19.48;10.00;;;;;;;;;;4974018;28;20042;-74
2024/01/29 12:44:51;;;;;;;16.35;8.93;;;;;;;;;;4944118;28;20054;-73
2024/01/29 12:47:20;;;;;;;17.48;8.57;;;;;;;;;;4960702;28;20047;-74
2024/01/29 12:49:47;;;;;;;16.33;8.73;;;;;;;;;;4928641;28;20054;-73
2024/01/29 12:52:14;;;;;;;18.00;8.68;;;;;;;;;;4960400;28;20102;-74
2024/01/29 12:54:40;;;;;;;16.67;9.20;;;;;;;;;;4944710;28;20273;-74
2024/01/29 12:57:07;;;;;;;18.50;9.63;;;;;;;;;;4977571;28;20297;-74
2024/01/29 12:59:33;;;;;;;16.13;8.98;;;;;;;;;;4960577;28;20057;-74
2024/01/29 13:02:00;;;;;;;16.92;8.75;;;;;;;;;;4961266;28;20127;-75
2024/01/29 13:04:26;;;;;;;19.33;9.48;;;;;;;;;;4960251;28;20065;-75
2024/01/29 13:06:52;;;;;;;19.05;9.23;;;;;;;;;;4960452;28;20090;-74
2024/01/29 13:09:19;;;;;;;20.25;9.15;;;;;;;;;;4960277;28;20054;-74
2024/01/29 13:11:46;;;;;;;19.23;9.73;;;;;;;;;;4960865;28;20126;-74
2024/01/29 13:14:12;;;;;;;18.30;8.97;;;;;;;;;;4977343;28;20391;-75
2024/01/29 13:16:38;;;;;;;18.23;9.10;;;;;;;;;;4945034;28;20080;-74
2024/01/29 13:19:05;;;;;;;17.52;9.40;;;;;;;;;;4977140;28;20479;-74
2024/01/29 13:21:31;;;;;;;16.80;9.73;;;;;;;;;;4960462;28;20058;-74
2024/01/29 13:23:58;;;;;;;17.73;9.80;;;;;;;;;;4960007;28;20082;-74
2024/01/29 13:26:29;;;;;;;19.85;9.27;;;;;;;;;;4928396;28;20448;-75
2024/01/29 13:28:58;;;;;;;17.98;9.45;;;;;;;;;;4960139;28;20483;-73
2024/01/29 13:31:24;;;;;;;17.15;10.02;;;;;;;;;;4960369;28;20042;-74
2024/01/29 13:33:50;;;;;;;18.40;9.82;;;;;;;;;;4976898;28;20134;-74
2024/01/29 13:36:17;;;;;;;16.58;9.52;;;;;;;;;;4959725;28;20059;-75
2024/01/29 13:38:43;;;;;;;17.77;9.73;;;;;;;;;;4959935;28;20438;-75
2024/01/29 13:41:10;;;;;;;16.38;9.50;;;;;;;;;;4960413;28;20050;-75
2024/01/29 13:43:36;;;;;;;20.40;9.85;;;;;;;;;;4928201;28;20470;-74
2024/01/29 13:46:02;;;;;;;20.30;10.20;;;;;;;;;;4976837;28;20050;-75
2024/01/29 13:48:29;;;;;;;16.85;9.20;;;;;;;;;;4943725;28;20290;-74
2024/01/29 13:50:55;;;;;;;17.38;10.40;;;;;;;;;;4960277;28;20051;-74
2024/01/29 13:53:21;;;;;;;24.65;10.15;;;;;;;;;;4959784;28;20129;-75
2024/01/29 13:55:47;;;;;;;20.23;10.30;;;;;;;;;;4943397;28;20491;-74
2024/01/29 13:58:13;;;;;;;19.17;10.55;;;;;;;;;;4959369;28;20050;-73
2024/01/29 14:00:39;;;;;;;21.08;10.07;;;;;;;;;;4943499;28;20106;-75
2024/01/29 14:03:05;;;;;;;17.23;9.63;;;;;;;;;;4960069;28;20081;-75
2024/01/29 14:05:32;;;;;;;16.48;9.45;;;;;;;;;;4960213;28;20058;-74
2024/01/29 14:07:58;;;;;;;18.48;9.85;;;;;;;;;;4959371;28;20074;-75
2024/01/29 14:10:24;;;;;;;18.40;9.40;;;;;;;;;;4943286;28;20472;-75
2024/01/29 14:12:50;;;;;;;19.15;9.60;;;;;;;;;;4958979;28;20051;-74
2024/01/29 14:15:17;;;;;;;20.60;10.23;;;;;;;;;;4943299;28;20480;-74
2024/01/29 14:17:43;;;;;;;18.52;9.77;;;;;;;;;;4959069;28;20051;-75
2024/01/29 14:20:10;;;;;;;17.95;9.30;;;;;;;;;;4923134;28;20059;-73
2024/01/29 14:22:36;;;;;;;20.05;9.68;;;;;;;;;;4943505;28;20105;-74
2024/01/29 14:25:03;;;;;;;18.30;9.65;;;;;;;;;;4958577;28;20038;-74
2024/01/29 14:27:29;;;;;;;18.58;9.98;;;;;;;;;;4958891;28;20174;-75
2024/01/29 14:29:56;;;;;;;22.27;9.75;;;;;;;;;;4942999;28;20133;-74
2024/01/29 14:32:24;;;;;;;22.50;10.07;;;;;;;;;;4942798;28;20118;-73